Time;durP1;ratioP1;P1;durP2;ratioP2;P2;SDS_P1;SDS_P2;PMS_P1;PMS_P2;Temp;Humidity;BMP_temperature;BMP_pressure;BME280_temperature;BME280_humidity;BME280_pressure;Samples;Min_cycle;Max_cycle;Signal;HPM_P1;HPM_P2
2021/08/24 00:00:45;;;;;;;18.40;8.10;;;;;;;;;;5015578;28;20030;-44
2021/08/24 00:03:11;;;;;;;13.00;8.18;;;;;;;;;;5015421;28;20026;-45
2021/08/24 00:05:38;;;;;;;15.35;6.85;;;;;;;;;;5015467;28;20069;-45
2021/08/24 00:08:05;;;;;;;18.73;13.35;;;;;;;;;;5015277;28;20037;-43
2021/08/24 00:10:33;;;;;;;12.95;8.20;;;;;;;;;;5015204;28;20053;-39
2021/08/24 00:12:59;;;;;;;28.02;19.02;;;;;;;;;;5015304;28;20471;-47
2021/08/24 00:15:26;;;;;;;25.05;14.48;;;;;;;;;;5015405;28;20123;-42
2021/08/24 00:17:52;;;;;;;21.55;12.23;;;;;;;;;;5015172;28;20033;-46
2021/08/24 00:20:19;;;;;;;13.05;6.78;;;;;;;;;;5015280;28;20048;-44
2021/08/24 00:22:45;;;;;;;5.47;3.67;;;;;;;;;;5015238;28;20478;-45
2021/08/24 00:25:12;;;;;;;4.75;2.40;;;;;;;;;;5015136;28;20084;-45
2021/08/24 00:27:38;;;;;;;5.38;3.80;;;;;;;;;;5015144;28;20022;-42
2021/08/24 00:30:05;;;;;;;214.00;66.28;;;;;;;;;;5015104;28;20367;-42
2021/08/24 00:32:31;;;;;;;22.90;11.10;;;;;;;;;;5014749;28;20038;-45
2021/08/24 00:34:58;;;;;;;10.63;6.95;;;;;;;;;;5015037;28;20022;-43
2021/08/24 00:37:24;;;;;;;7.38;5.38;;;;;;;;;;5014955;28;20029;-44
2021/08/24 00:39:51;;;;;;;4.57;2.90;;;;;;;;;;5015014;28;20018;-42
2021/08/24 00:42:17;;;;;;;8.38;4.78;;;;;;;;;;5014844;28;20026;-42
2021/08/24 00:44:46;;;;;;;6.78;3.50;;;;;;;;;;5014846;28;20504;-42
2021/08/24 00:47:13;;;;;;;9.23;5.57;;;;;;;;;;5014731;28;20033;-42
2021/08/24 00:49:40;;;;;;;8.93;4.82;;;;;;;;;;5014681;28;20145;-41
2021/08/24 00:52:08;;;;;;;10.10;7.50;;;;;;;;;;5014553;28;20034;-42
2021/08/24 00:54:35;;;;;;;7.80;4.75;;;;;;;;;;5014627;28;20078;-46
2021/08/24 00:57:03;;;;;;;8.63;5.53;;;;;;;;;;5014731;28;20018;-45
2021/08/24 00:59:29;;;;;;;5.80;3.03;;;;;;;;;;5014581;28;20359;-45
2021/08/24 01:01:55;;;;;;;5.90;4.30;;;;;;;;;;5014376;28;20028;-44
2021/08/24 01:04:23;;;;;;;6.30;4.13;;;;;;;;;;5014576;28;20430;-44
2021/08/24 01:06:52;;;;;;;17.38;9.45;;;;;;;;;;5014347;28;20505;-42
2021/08/24 01:09:44;;;;;;;5.72;2.95;;;;;;;;;;5014236;28;20128;-42
2021/08/24 01:12:17;;;;;;;8.38;5.75;;;;;;;;;;5014262;28;20038;-40
2021/08/24 01:14:51;;;;;;;10.80;6.18;;;;;;;;;;5014195;28;20025;-43
2021/08/24 01:17:18;;;;;;;23.25;17.08;;;;;;;;;;5014318;28;20054;-43
2021/08/24 01:19:57;;;;;;;10.90;7.03;;;;;;;;;;5014073;28;20479;-45
2021/08/24 01:22:26;;;;;;;28.73;21.33;;;;;;;;;;5014191;28;20026;-43
2021/08/24 01:25:14;;;;;;;18.20;12.23;;;;;;;;;;5014019;28;20030;-44
2021/08/24 01:27:55;;;;;;;9.00;7.10;;;;;;;;;;5012799;28;20390;-45
2021/08/24 01:30:40;;;;;;;4.88;3.45;;;;;;;;;;5014008;28;20058;-45
2021/08/24 01:33:11;;;;;;;6.07;4.07;;;;;;;;;;5013669;28;20124;-42
2021/08/24 01:35:49;;;;;;;5.85;3.03;;;;;;;;;;5013745;28;20030;-41
2021/08/24 01:38:31;;;;;;;8.23;3.03;;;;;;;;;;5012659;28;20042;-40
2021/08/24 01:41:09;;;;;;;5.07;2.90;;;;;;;;;;5013850;28;20034;-40
2021/08/24 01:43:56;;;;;;;5.90;2.90;;;;;;;;;;5013789;28;20029;-39
2021/08/24 01:46:44;;;;;;;5.93;3.88;;;;;;;;;;5013722;28;20473;-42
2021/08/24 01:49:11;;;;;;;6.07;4.72;;;;;;;;;;5013764;28;20096;-42
2021/08/24 01:51:49;;;;;;;7.40;5.50;;;;;;;;;;5013533;28;20160;-43
2021/08/24 01:54:23;;;;;;;11.02;4.80;;;;;;;;;;5013685;28;20393;-45
2021/08/24 01:56:51;;;;;;;13.52;9.43;;;;;;;;;;5012485;28;20034;-42
2021/08/24 01:59:20;;;;;;;17.30;12.93;;;;;;;;;;5013677;28;20029;-42
2021/08/24 02:01:51;;;;;;;11.63;8.27;;;;;;;;;;5013355;28;20084;-42
2021/08/24 02:04:25;;;;;;;11.07;7.45;;;;;;;;;;5013268;28;20022;-42
2021/08/24 02:06:52;;;;;;;11.60;7.18;;;;;;;;;;5013506;28;20479;-42
2021/08/24 02:09:22;;;;;;;7.15;4.35;;;;;;;;;;5013287;28;20057;-45
2021/08/24 02:11:50;;;;;;;5.35;4.25;;;;;;;;;;5013616;28;20036;-42
2021/08/24 02:14:16;;;;;;;8.63;5.68;;;;;;;;;;5012191;28;20069;-43
2021/08/24 02:16:44;;;;;;;7.80;5.32;;;;;;;;;;5013390;28;20030;-43
2021/08/24 02:19:20;;;;;;;9.80;3.88;;;;;;;;;;5013394;28;20026;-41
2021/08/24 02:22:15;;;;;;;3.97;3.03;;;;;;;;;;5013351;28;20482;-42
2021/08/24 02:24:45;;;;;;;8.30;3.78;;;;;;;;;;5009681;28;20030;-42
2021/08/24 02:27:17;;;;;;;4.18;2.75;;;;;;;;;;5012045;28;20081;-42
2021/08/24 02:29:43;;;;;;;7.93;2.80;;;;;;;;;;5013467;28;20480;-41
2021/08/24 02:32:11;;;;;;;3.80;2.80;;;;;;;;;;5013214;28;20037;-41
2021/08/24 02:34:40;;;;;;;3.70;2.55;;;;;;;;;;5013369;28;20057;-41
2021/08/24 02:37:12;;;;;;;4.90;3.95;;;;;;;;;;5013180;28;20034;-44
2021/08/24 02:39:51;;;;;;;5.80;3.80;;;;;;;;;;5013155;28;20516;-41
2021/08/24 02:42:24;;;;;;;4.45;3.40;;;;;;;;;;5013291;28;20041;-41
2021/08/24 02:44:55;;;;;;;6.47;5.10;;;;;;;;;;5013209;28;20030;-42
2021/08/24 02:47:22;;;;;;;7.53;5.83;;;;;;;;;;5013298;28;20463;-41
2021/08/24 02:49:48;;;;;;;7.90;5.38;;;;;;;;;;5013230;28;20252;-49
2021/08/24 02:52:14;;;;;;;15.48;10.20;;;;;;;;;;5013497;28;20121;-47
2021/08/24 02:54:46;;;;;;;7.80;5.03;;;;;;;;;;5013530;28;20025;-52
2021/08/24 02:57:14;;;;;;;4.45;3.13;;;;;;;;;;5013381;28;20168;-42
2021/08/24 02:59:40;;;;;;;8.15;4.93;;;;;;;;;;5013125;28;20092;-42
2021/08/24 03:02:07;;;;;;;5.07;3.38;;;;;;;;;;5013165;28;20080;-42
2021/08/24 03:04:33;;;;;;;3.95;3.20;;;;;;;;;;5013078;28;20486;-42
2021/08/24 03:07:02;;;;;;;7.55;2.65;;;;;;;;;;5013221;28;20517;-41
2021/08/24 03:09:31;;;;;;;5.05;2.70;;;;;;;;;;5012908;28;20053;-42
2021/08/24 03:11:57;;;;;;;3.30;2.50;;;;;;;;;;5012918;28;20168;-41
2021/08/24 03:14:28;;;;;;;3.35;2.55;;;;;;;;;;5013601;28;20026;-41
2021/08/24 03:16:56;;;;;;;5.13;2.85;;;;;;;;;;5016696;28;20485;-42
2021/08/24 03:19:25;;;;;;;4.00;2.67;;;;;;;;;;5016429;28;20034;-42
2021/08/24 03:21:53;;;;;;;5.38;2.60;;;;;;;;;;5016720;28;20061;-42
2021/08/24 03:24:19;;;;;;;4.00;2.33;;;;;;;;;;5016550;28;20022;-42
2021/08/24 03:26:49;;;;;;;3.25;2.47;;;;;;;;;;5016410;28;20026;-42
2021/08/24 03:29:22;;;;;;;2.42;2.22;;;;;;;;;;5016322;28;20033;-41
2021/08/24 03:31:52;;;;;;;3.47;2.42;;;;;;;;;;5016261;28;20425;-42
2021/08/24 03:34:18;;;;;;;3.50;2.40;;;;;;;;;;5016193;28;20386;-41
2021/08/24 03:36:44;;;;;;;4.13;2.38;;;;;;;;;;5016251;28;20030;-42
2021/08/24 03:39:10;;;;;;;3.40;2.50;;;;;;;;;;5016208;28;20505;-41
2021/08/24 03:41:36;;;;;;;7.22;2.17;;;;;;;;;;5015997;28;20038;-41
2021/08/24 03:44:02;;;;;;;4.28;2.40;;;;;;;;;;5016118;28;20034;-41
2021/08/24 03:46:28;;;;;;;3.92;2.05;;;;;;;;;;5016013;28;20489;-41
2021/08/24 03:48:54;;;;;;;2.90;2.33;;;;;;;;;;5015923;28;20105;-42
2021/08/24 03:51:20;;;;;;;3.35;2.70;;;;;;;;;;5015985;28;20033;-42
2021/08/24 03:53:47;;;;;;;3.92;2.70;;;;;;;;;;5015933;28;20034;-42
2021/08/24 03:56:13;;;;;;;4.57;2.85;;;;;;;;;;5016035;28;20477;-42
2021/08/24 03:58:39;;;;;;;3.53;2.55;;;;;;;;;;5015732;28;20083;-42
2021/08/24 04:01:11;;;;;;;3.65;2.65;;;;;;;;;;5015890;28;20024;-43
2021/08/24 04:03:37;;;;;;;5.55;2.60;;;;;;;;;;5015564;28;20379;-42
2021/08/24 04:06:06;;;;;;;5.50;2.67;;;;;;;;;;5015824;28;20026;-43
2021/08/24 04:08:32;;;;;;;4.82;2.70;;;;;;;;;;5015369;28;20022;-43
2021/08/24 04:10:58;;;;;;;6.13;2.70;;;;;;;;;;5015607;28;20044;-41
2021/08/24 04:13:24;;;;;;;3.90;2.70;;;;;;;;;;5015409;28;20030;-41
2021/08/24 04:15:51;;;;;;;3.10;2.35;;;;;;;;;;5015797;28;20024;-42
2021/08/24 04:18:17;;;;;;;5.25;2.47;;;;;;;;;;5015345;28;20033;-41
2021/08/24 04:20:43;;;;;;;3.88;2.63;;;;;;;;;;5015327;28;20021;-41
2021/08/24 04:23:13;;;;;;;3.70;2.42;;;;;;;;;;5015313;28;20025;-41
2021/08/24 04:25:39;;;;;;;4.20;2.70;;;;;;;;;;5014746;28;20106;-42
2021/08/24 04:28:08;;;;;;;4.95;2.70;;;;;;;;;;5015492;28;20109;-42
2021/08/24 04:30:35;;;;;;;4.93;3.90;;;;;;;;;;5015274;28;20046;-41
2021/08/24 04:33:01;;;;;;;5.88;4.88;;;;;;;;;;5015055;28;20540;-41
2021/08/24 04:35:27;;;;;;;8.63;5.15;;;;;;;;;;5015169;28;20036;-41
2021/08/24 04:37:55;;;;;;;9.68;5.90;;;;;;;;;;5015005;28;20029;-41
2021/08/24 04:40:21;;;;;;;10.15;6.50;;;;;;;;;;5014745;28;20041;-43
2021/08/24 04:42:48;;;;;;;5.85;4.22;;;;;;;;;;5014879;28;20038;-41
2021/08/24 04:45:14;;;;;;;5.50;4.15;;;;;;;;;;5015027;28;20061;-41
2021/08/24 04:47:40;;;;;;;8.80;5.57;;;;;;;;;;5015202;28;20446;-41
2021/08/24 04:50:07;;;;;;;11.30;7.05;;;;;;;;;;5014834;28;20025;-42
2021/08/24 04:52:33;;;;;;;13.25;8.10;;;;;;;;;;5014770;28;20037;-41
2021/08/24 04:54:59;;;;;;;7.03;4.43;;;;;;;;;;5014917;28;20025;-42
2021/08/24 04:57:25;;;;;;;12.00;6.13;;;;;;;;;;5014732;28;20083;-41
2021/08/24 04:59:51;;;;;;;11.07;5.65;;;;;;;;;;5013352;28;20387;-42
2021/08/24 05:02:19;;;;;;;14.88;8.90;;;;;;;;;;5014796;28;20026;-41
2021/08/24 05:04:45;;;;;;;10.95;7.03;;;;;;;;;;5014641;28;20103;-41
2021/08/24 05:07:11;;;;;;;15.85;9.27;;;;;;;;;;5014618;28;20026;-42
2021/08/24 05:09:37;;;;;;;14.45;7.75;;;;;;;;;;5014417;28;20073;-42
2021/08/24 05:12:07;;;;;;;14.32;8.73;;;;;;;;;;5014310;28;20482;-41
2021/08/24 05:14:35;;;;;;;10.13;6.93;;;;;;;;;;5014389;28;20053;-42
2021/08/24 05:17:01;;;;;;;12.57;7.50;;;;;;;;;;5014397;28;20053;-42
2021/08/24 05:19:27;;;;;;;7.78;5.38;;;;;;;;;;5014239;28;20021;-42
2021/08/24 05:21:56;;;;;;;8.35;3.88;;;;;;;;;;5014213;28;20037;-42
2021/08/24 05:24:22;;;;;;;6.68;4.40;;;;;;;;;;5014255;28;20042;-42
2021/08/24 05:26:48;;;;;;;4.35;3.65;;;;;;;;;;5014162;28;20057;-41
2021/08/24 05:29:16;;;;;;;5.90;4.13;;;;;;;;;;5014166;28;20406;-42
2021/08/24 05:31:42;;;;;;;6.80;4.20;;;;;;;;;;5013994;28;20022;-42
2021/08/24 05:34:11;;;;;;;5.47;4.22;;;;;;;;;;5014119;28;20486;-41
2021/08/24 05:36:37;;;;;;;8.43;4.20;;;;;;;;;;5013695;28;20517;-40
2021/08/24 05:39:03;;;;;;;6.82;4.30;;;;;;;;;;5013362;28;20034;-41
2021/08/24 05:41:30;;;;;;;5.88;3.65;;;;;;;;;;5013710;28;20022;-41
2021/08/24 05:43:56;;;;;;;6.90;3.60;;;;;;;;;;5013874;28;20024;-42
2021/08/24 05:46:22;;;;;;;5.95;3.83;;;;;;;;;;5013801;28;20037;-42
2021/08/24 05:48:50;;;;;;;9.25;3.75;;;;;;;;;;5013841;28;20443;-41
2021/08/24 05:51:18;;;;;;;4.45;3.75;;;;;;;;;;5013696;28;20028;-41
2021/08/24 05:53:44;;;;;;;8.85;4.15;;;;;;;;;;5013619;28;20048;-41
2021/08/24 05:56:11;;;;;;;9.43;3.80;;;;;;;;;;5013692;28;20026;-42
2021/08/24 05:58:38;;;;;;;4.75;3.60;;;;;;;;;;5013933;28;20026;-42
2021/08/24 06:01:04;;;;;;;5.32;3.47;;;;;;;;;;5013505;28;20018;-42
2021/08/24 06:03:30;;;;;;;6.00;3.85;;;;;;;;;;5013575;28;20054;-43
2021/08/24 06:05:58;;;;;;;8.18;5.25;;;;;;;;;;5013529;28;20045;-42
2021/08/24 06:08:24;;;;;;;8.27;4.50;;;;;;;;;;5013408;28;20065;-42
2021/08/24 06:10:50;;;;;;;6.30;4.30;;;;;;;;;;5013282;28;20068;-41
2021/08/24 06:13:16;;;;;;;7.65;3.53;;;;;;;;;;5013491;28;20034;-41
2021/08/24 06:15:42;;;;;;;6.40;4.10;;;;;;;;;;5013709;28;20382;-42
2021/08/24 06:18:08;;;;;;;10.32;6.75;;;;;;;;;;5012186;28;20034;-42
2021/08/24 06:20:34;;;;;;;5.38;4.00;;;;;;;;;;5013441;28;20148;-42
2021/08/24 06:23:01;;;;;;;6.72;4.00;;;;;;;;;;5013412;28;20382;-42
2021/08/24 06:25:27;;;;;;;6.63;3.80;;;;;;;;;;5013316;28;20100;-41
2021/08/24 06:27:53;;;;;;;4.18;3.63;;;;;;;;;;5013497;28;20057;-42
2021/08/24 06:30:19;;;;;;;7.88;4.10;;;;;;;;;;5013289;28;20018;-42
2021/08/24 06:32:53;;;;;;;7.90;4.35;;;;;;;;;;5013297;28;20033;-41
2021/08/24 06:35:21;;;;;;;11.23;4.60;;;;;;;;;;5013159;28;20022;-42
2021/08/24 06:37:47;;;;;;;6.47;4.00;;;;;;;;;;5013395;28;20085;-42
2021/08/24 06:40:15;;;;;;;8.00;4.10;;;;;;;;;;5013095;28;20045;-42
2021/08/24 06:42:49;;;;;;;6.78;4.53;;;;;;;;;;5013051;28;20037;-42
2021/08/24 06:45:17;;;;;;;11.23;7.93;;;;;;;;;;5013262;28;20021;-42
2021/08/24 06:47:44;;;;;;;6.70;4.60;;;;;;;;;;5013236;28;20478;-42
2021/08/24 06:50:10;;;;;;;8.55;4.57;;;;;;;;;;5016669;28;20037;-42
2021/08/24 06:52:36;;;;;;;7.15;3.95;;;;;;;;;;5017006;28;20121;-41
2021/08/24 06:55:02;;;;;;;12.57;6.82;;;;;;;;;;5017138;28;20025;-42
2021/08/24 06:57:28;;;;;;;10.63;6.32;;;;;;;;;;5017451;28;20026;-43
2021/08/24 06:59:54;;;;;;;7.25;4.22;;;;;;;;;;5017108;28;20026;-43
2021/08/24 07:02:20;;;;;;;8.57;3.67;;;;;;;;;;5017021;28;20040;-42
2021/08/24 07:04:48;;;;;;;8.98;5.78;;;;;;;;;;5016741;28;20022;-43
2021/08/24 07:07:15;;;;;;;9.27;6.03;;;;;;;;;;5016772;28;20061;-44
2021/08/24 07:09:41;;;;;;;8.98;4.22;;;;;;;;;;5016660;28;20133;-42
2021/08/24 07:12:07;;;;;;;8.27;3.63;;;;;;;;;;5016849;28;20040;-43
2021/08/24 07:14:33;;;;;;;5.88;4.05;;;;;;;;;;5017039;28;20068;-41
2021/08/24 07:16:59;;;;;;;5.40;4.13;;;;;;;;;;5016816;28;20101;-42
2021/08/24 07:19:25;;;;;;;9.88;4.47;;;;;;;;;;5016633;28;20037;-42
2021/08/24 07:21:51;;;;;;;6.43;4.15;;;;;;;;;;5016908;28;20033;-43
2021/08/24 07:24:18;;;;;;;8.18;4.15;;;;;;;;;;5016423;28;20022;-42
2021/08/24 07:26:44;;;;;;;7.85;4.32;;;;;;;;;;5016424;28;20382;-41
2021/08/24 07:29:10;;;;;;;4.80;4.10;;;;;;;;;;5016512;28;20052;-41
2021/08/24 07:31:37;;;;;;;8.15;3.92;;;;;;;;;;5016455;28;20084;-39
2021/08/24 07:34:04;;;;;;;10.80;4.82;;;;;;;;;;5016359;28;20109;-41
2021/08/24 07:36:30;;;;;;;6.85;4.20;;;;;;;;;;5016243;28;20419;-42
2021/08/24 07:38:57;;;;;;;8.50;3.88;;;;;;;;;;5016330;28;20467;-44
2021/08/24 07:41:23;;;;;;;4.97;4.05;;;;;;;;;;5016419;28;20030;-42
2021/08/24 07:43:49;;;;;;;7.30;3.80;;;;;;;;;;5016371;28;20029;-43
2021/08/24 07:46:15;;;;;;;10.55;4.50;;;;;;;;;;5016273;28;20030;-43
2021/08/24 07:48:41;;;;;;;7.63;4.53;;;;;;;;;;5016093;28;20022;-42
2021/08/24 07:51:07;;;;;;;7.90;4.47;;;;;;;;;;5016320;28;20026;-42
2021/08/24 07:53:36;;;;;;;7.47;4.20;;;;;;;;;;5016008;28;20429;-41
2021/08/24 07:56:04;;;;;;;6.47;3.90;;;;;;;;;;5016117;28;20463;-42
2021/08/24 07:58:30;;;;;;;13.63;5.00;;;;;;;;;;5015979;28;20026;-41
2021/08/24 08:00:56;;;;;;;7.72;4.28;;;;;;;;;;5014956;28;20116;-41
2021/08/24 08:03:22;;;;;;;11.52;5.57;;;;;;;;;;5015878;28;20097;-42
2021/08/24 08:05:48;;;;;;;25.42;14.30;;;;;;;;;;5015557;28;20028;-40
2021/08/24 08:08:15;;;;;;;9.50;7.00;;;;;;;;;;5015564;28;20029;-41
2021/08/24 08:10:41;;;;;;;18.48;11.40;;;;;;;;;;4996267;28;20030;-43
2021/08/24 08:13:07;;;;;;;17.02;9.35;;;;;;;;;;4995820;28;20099;-41
2021/08/24 08:15:33;;;;;;;18.15;10.23;;;;;;;;;;4995782;28;20049;-43
2021/08/24 08:18:00;;;;;;;21.88;14.20;;;;;;;;;;4995637;28;20023;-41
2021/08/24 08:20:27;;;;;;;10.32;7.32;;;;;;;;;;4995434;28;20366;-41
2021/08/24 08:22:53;;;;;;;14.35;7.80;;;;;;;;;;4995454;28;20022;-42
2021/08/24 08:25:19;;;;;;;27.80;19.02;;;;;;;;;;4995217;28;20030;-41
2021/08/24 08:27:45;;;;;;;15.73;10.57;;;;;;;;;;4995260;28;20031;-42
2021/08/24 08:30:11;;;;;;;15.55;10.40;;;;;;;;;;4995269;28;20018;-41
2021/08/24 08:32:39;;;;;;;8.75;6.80;;;;;;;;;;4995132;28;20100;-39
2021/08/24 08:35:05;;;;;;;11.65;7.78;;;;;;;;;;4994963;28;20034;-40
2021/08/24 08:37:34;;;;;;;11.02;6.43;;;;;;;;;;4994882;28;20031;-41
2021/08/24 08:40:01;;;;;;;15.80;8.68;;;;;;;;;;4994765;28;20153;-42
2021/08/24 08:42:46;;;;;;;9.93;6.57;;;;;;;;;;4994929;28;20105;-41
2021/08/24 08:45:21;;;;;;;13.30;5.22;;;;;;;;;;4992549;28;20026;-40
2021/08/24 08:47:53;;;;;;;8.13;4.85;;;;;;;;;;4994723;28;20511;-39
2021/08/24 08:50:28;;;;;;;11.60;6.43;;;;;;;;;;4994454;28;20030;-41
2021/08/24 08:53:04;;;;;;;10.35;4.07;;;;;;;;;;4992797;28;20030;-40
2021/08/24 08:55:36;;;;;;;8.73;5.13;;;;;;;;;;4995131;28;20054;-40
2021/08/24 08:58:11;;;;;;;13.27;7.82;;;;;;;;;;4995060;28;20026;-40
2021/08/24 09:00:50;;;;;;;9.20;6.07;;;;;;;;;;4994912;28;20077;-41
2021/08/24 09:03:35;;;;;;;15.48;9.05;;;;;;;;;;4994906;28;20066;-41
2021/08/24 09:06:02;;;;;;;10.82;6.45;;;;;;;;;;4994717;28;20026;-41
2021/08/24 09:08:29;;;;;;;8.43;3.97;;;;;;;;;;4994743;28;20121;-41
2021/08/24 09:10:59;;;;;;;6.10;4.13;;;;;;;;;;4994550;28;20522;-41
2021/08/24 09:13:25;;;;;;;17.40;9.63;;;;;;;;;;4994540;28;20082;-41
2021/08/24 09:15:57;;;;;;;13.57;9.68;;;;;;;;;;4994638;28;20015;-41
2021/08/24 09:18:49;;;;;;;9.43;6.35;;;;;;;;;;4994720;28;20055;-40
2021/08/24 09:21:33;;;;;;;12.77;8.15;;;;;;;;;;4992390;28;20042;-42
2021/08/24 09:24:04;;;;;;;12.60;6.43;;;;;;;;;;4994302;28;20019;-40
2021/08/24 09:26:53;;;;;;;11.93;8.52;;;;;;;;;;4989622;28;20121;-42
2021/08/24 09:29:21;;;;;;;22.02;14.00;;;;;;;;;;4989044;28;20039;-42
2021/08/24 09:31:47;;;;;;;9.85;5.07;;;;;;;;;;4994332;28;20023;-40
2021/08/24 09:34:15;;;;;;;24.38;15.02;;;;;;;;;;4994282;28;20386;-41
2021/08/24 09:36:42;;;;;;;33.45;25.67;;;;;;;;;;4994063;28;20023;-42
2021/08/24 09:39:08;;;;;;;5.60;4.30;;;;;;;;;;4994155;28;20428;-41
2021/08/24 09:41:36;;;;;;;4.40;3.70;;;;;;;;;;4992886;28;20122;-41
2021/08/24 09:44:34;;;;;;;6.45;3.30;;;;;;;;;;4994183;28;20022;-41
2021/08/24 09:47:07;;;;;;;10.30;5.87;;;;;;;;;;4953272;29;20114;-42
2021/08/24 09:49:33;;;;;;;6.03;4.10;;;;;;;;;;4953228;28;20269;-41
2021/08/24 09:52:02;;;;;;;12.63;6.60;;;;;;;;;;4953236;29;20029;-40
2021/08/24 09:54:30;;;;;;;8.95;6.15;;;;;;;;;;4953286;29;20043;-40
2021/08/24 09:56:59;;;;;;;14.73;10.57;;;;;;;;;;4953206;29;20082;-41
2021/08/24 09:59:27;;;;;;;31.67;24.73;;;;;;;;;;4953167;29;20026;-39
2021/08/24 10:01:54;;;;;;;10.40;6.85;;;;;;;;;;4953044;29;20086;-40
2021/08/24 10:04:20;;;;;;;11.90;8.27;;;;;;;;;;4947761;29;20237;-45
2021/08/24 10:06:54;;;;;;;12.13;4.55;;;;;;;;;;4952908;29;20027;-46
2021/08/24 10:09:23;;;;;;;25.20;8.57;;;;;;;;;;4953158;29;20227;-45
2021/08/24 10:11:49;;;;;;;24.50;7.55;;;;;;;;;;4953332;29;20027;-45
2021/08/24 10:14:18;;;;;;;6.90;4.40;;;;;;;;;;4953151;29;20424;-41
2021/08/24 10:16:45;;;;;;;5.95;3.80;;;;;;;;;;4953447;29;20098;-42
2021/08/24 10:19:24;;;;;;;4.13;3.45;;;;;;;;;;4952853;29;20057;-42
2021/08/24 10:22:04;;;;;;;6.30;3.95;;;;;;;;;;4960543;28;20092;-42
2021/08/24 10:24:39;;;;;;;7.15;4.20;;;;;;;;;;4998269;28;20033;-43
2021/08/24 10:27:06;;;;;;;7.43;4.55;;;;;;;;;;5000366;28;20109;-41
2021/08/24 10:29:34;;;;;;;15.45;3.67;;;;;;;;;;5000267;28;20026;-42
2021/08/24 10:32:05;;;;;;;5.18;4.13;;;;;;;;;;5000335;28;20038;-42
2021/08/24 10:34:42;;;;;;;5.45;3.65;;;;;;;;;;5000194;28;20038;-42
2021/08/24 10:37:27;;;;;;;5.50;3.00;;;;;;;;;;5000048;28;20471;-42
2021/08/24 10:40:13;;;;;;;5.55;3.30;;;;;;;;;;5000410;28;20034;-42
2021/08/24 10:42:41;;;;;;;4.28;2.95;;;;;;;;;;4999931;28;20479;-42
2021/08/24 10:45:22;;;;;;;8.00;3.70;;;;;;;;;;5000081;28;20065;-41
2021/08/24 10:47:53;;;;;;;8.00;3.35;;;;;;;;;;5000019;28;20117;-41
2021/08/24 10:50:22;;;;;;;5.35;2.65;;;;;;;;;;4999654;28;20129;-48
2021/08/24 10:52:57;;;;;;;8.63;3.35;;;;;;;;;;4999909;28;20395;-42
2021/08/24 10:55:34;;;;;;;4.15;3.17;;;;;;;;;;4999854;28;20027;-42
2021/08/24 10:58:21;;;;;;;6.10;3.28;;;;;;;;;;5000117;28;20041;-42
2021/08/24 11:01:00;;;;;;;7.10;3.70;;;;;;;;;;5000140;28;20050;-41
2021/08/24 11:03:45;;;;;;;14.63;3.25;;;;;;;;;;5000137;28;20049;-41
2021/08/24 11:06:13;;;;;;;2.83;2.60;;;;;;;;;;4999999;28;20037;-42
2021/08/24 11:09:01;;;;;;;8.45;3.42;;;;;;;;;;5000046;28;20050;-43
2021/08/24 11:11:45;;;;;;;3.35;2.67;;;;;;;;;;5000000;28;20045;-42
2021/08/24 11:14:11;;;;;;;6.70;2.90;;;;;;;;;;4999963;28;20042;-43
2021/08/24 11:16:49;;;;;;;5.32;2.80;;;;;;;;;;4999982;28;20030;-42
2021/08/24 11:19:18;;;;;;;5.72;2.83;;;;;;;;;;4999704;28;20031;-42
2021/08/24 11:21:49;;;;;;;4.95;3.08;;;;;;;;;;4999606;28;20122;-42
2021/08/24 11:24:38;;;;;;;6.40;2.70;;;;;;;;;;4999935;28;20023;-46
2021/08/24 11:27:10;;;;;;;3.10;2.80;;;;;;;;;;4999942;28;20478;-42
2021/08/24 11:29:43;;;;;;;3.90;2.60;;;;;;;;;;5000108;28;20030;-42
2021/08/24 11:32:41;;;;;;;4.28;2.70;;;;;;;;;;4999582;28;20025;-42
2021/08/24 11:35:11;;;;;;;3.35;2.35;;;;;;;;;;4995352;28;20194;-45
2021/08/24 11:37:45;;;;;;;2.85;2.55;;;;;;;;;;4994508;28;20101;-44
2021/08/24 11:40:13;;;;;;;4.68;2.72;;;;;;;;;;4994377;28;20065;-43
2021/08/24 11:42:41;;;;;;;7.95;3.10;;;;;;;;;;4994374;28;20030;-43
2021/08/24 11:45:12;;;;;;;4.10;3.00;;;;;;;;;;4994452;28;20046;-42
2021/08/24 11:48:00;;;;;;;8.05;2.70;;;;;;;;;;4994439;28;20522;-42
2021/08/24 11:50:41;;;;;;;4.07;2.72;;;;;;;;;;4993929;28;20030;-47
2021/08/24 11:53:15;;;;;;;3.22;2.92;;;;;;;;;;4994072;28;20046;-42
2021/08/24 11:55:43;;;;;;;6.75;2.80;;;;;;;;;;4994192;28;20026;-43
2021/08/24 11:58:09;;;;;;;6.15;2.30;;;;;;;;;;4994249;28;20038;-43
2021/08/24 12:00:35;;;;;;;5.65;2.30;;;;;;;;;;4994058;28;20022;-42
2021/08/24 12:03:07;;;;;;;5.63;2.65;;;;;;;;;;4994056;28;20076;-44
2021/08/24 12:05:43;;;;;;;5.82;2.50;;;;;;;;;;4993974;28;20041;-43
2021/08/24 12:08:15;;;;;;;6.00;2.40;;;;;;;;;;4993855;28;20030;-42
2021/08/24 12:10:51;;;;;;;3.90;2.80;;;;;;;;;;4977731;28;20395;-42
2021/08/24 12:13:36;;;;;;;3.80;2.25;;;;;;;;;;4996039;28;20365;-42
2021/08/24 12:16:09;;;;;;;4.40;1.98;;;;;;;;;;4995906;28;20097;-41
2021/08/24 12:18:37;;;;;;;2.67;1.85;;;;;;;;;;4996056;28;20022;-42
2021/08/24 12:21:22;;;;;;;2.28;1.90;;;;;;;;;;4995816;28;20022;-41
2021/08/24 12:23:48;;;;;;;4.45;1.90;;;;;;;;;;4995713;28;20029;-44
2021/08/24 12:26:23;;;;;;;2.17;1.88;;;;;;;;;;4995669;28;20050;-43
2021/08/24 12:28:49;;;;;;;2.47;2.17;;;;;;;;;;4995643;28;20062;-43
2021/08/24 12:31:38;;;;;;;6.88;2.30;;;;;;;;;;4995628;28;20022;-41
2021/08/24 12:34:42;;;;;;;4.53;2.38;;;;;;;;;;4993411;28;20043;-42
2021/08/24 12:37:21;;;;;;;2.95;2.30;;;;;;;;;;4954455;29;20510;-46
2021/08/24 12:39:50;;;;;;;2.70;2.40;;;;;;;;;;4954516;29;20495;-42
2021/08/24 12:42:19;;;;;;;2.65;2.08;;;;;;;;;;4954923;29;20488;-44
2021/08/24 12:44:47;;;;;;;6.15;1.90;;;;;;;;;;4954558;28;20033;-42
2021/08/24 12:47:27;;;;;;;2.53;1.85;;;;;;;;;;4954562;28;20035;-42
2021/08/24 12:49:54;;;;;;;93.07;4.85;;;;;;;;;;4954588;29;20410;-43
2021/08/24 12:52:20;;;;;;;3.38;2.05;;;;;;;;;;4954540;29;20548;-41
2021/08/24 12:55:06;;;;;;;12.27;3.13;;;;;;;;;;4954690;29;20047;-43
2021/08/24 12:57:36;;;;;;;6.88;3.80;;;;;;;;;;4916356;29;20442;-43
2021/08/24 13:00:23;;;;;;;13.95;5.90;;;;;;;;;;4916253;29;20084;-42
2021/08/24 13:02:54;;;;;;;8.13;4.25;;;;;;;;;;4916296;29;20051;-46
2021/08/24 13:05:28;;;;;;;1.85;1.48;;;;;;;;;;4916543;29;20545;-43
2021/08/24 13:08:12;;;;;;;9.13;6.32;;;;;;;;;;4925555;29;20046;-45
2021/08/24 13:10:51;;;;;;;4.85;2.60;;;;;;;;;;4940657;29;20054;-42
2021/08/24 13:13:34;;;;;;;1.60;1.50;;;;;;;;;;4954532;29;20043;-42
2021/08/24 13:16:09;;;;;;;1.85;1.67;;;;;;;;;;4954251;29;20079;-42
2021/08/24 13:18:38;;;;;;;15.77;10.60;;;;;;;;;;4954332;28;20388;-47
2021/08/24 13:21:11;;;;;;;19.83;13.68;;;;;;;;;;4954031;29;20057;-46
2021/08/24 13:23:39;;;;;;;5.97;4.47;;;;;;;;;;4954193;29;20066;-42
2021/08/24 13:26:11;;;;;;;9.57;4.40;;;;;;;;;;4954088;29;20055;-44
2021/08/24 13:28:38;;;;;;;4.65;3.35;;;;;;;;;;4954270;29;20064;-42
2021/08/24 13:31:06;;;;;;;2.55;1.80;;;;;;;;;;4954038;29;20118;-42
2021/08/24 13:33:43;;;;;;;1.80;1.38;;;;;;;;;;4954476;28;20495;-42
2021/08/24 13:36:29;;;;;;;3.15;2.25;;;;;;;;;;4994365;28;20029;-42
2021/08/24 13:38:59;;;;;;;2.95;1.20;;;;;;;;;;4994574;28;20041;-43
2021/08/24 13:41:33;;;;;;;3.67;1.77;;;;;;;;;;4994497;28;20035;-42
2021/08/24 13:44:00;;;;;;;13.20;7.32;;;;;;;;;;4994472;28;20027;-42
2021/08/24 13:46:28;;;;;;;6.03;4.55;;;;;;;;;;4994277;28;20034;-45
2021/08/24 13:48:55;;;;;;;9.15;6.07;;;;;;;;;;4994511;28;20080;-43
2021/08/24 13:51:22;;;;;;;2.53;1.95;;;;;;;;;;4994237;28;20036;-43
2021/08/24 13:53:55;;;;;;;14.98;8.68;;;;;;;;;;4994257;28;20037;-46
2021/08/24 13:56:35;;;;;;;6.45;4.75;;;;;;;;;;4994353;28;20018;-42
2021/08/24 13:59:02;;;;;;;14.18;9.00;;;;;;;;;;4993517;28;20037;-42
2021/08/24 14:01:54;;;;;;;16.35;10.68;;;;;;;;;;4994171;28;20033;-42
2021/08/24 14:04:26;;;;;;;8.27;6.07;;;;;;;;;;4993739;28;20038;-43
2021/08/24 14:07:01;;;;;;;10.68;4.65;;;;;;;;;;4992666;28;20394;-42
2021/08/24 14:09:44;;;;;;;8.48;3.30;;;;;;;;;;4993944;28;20047;-46
2021/08/24 14:12:22;;;;;;;5.07;1.98;;;;;;;;;;4994204;28;20035;-47
2021/08/24 14:14:51;;;;;;;3.08;1.20;;;;;;;;;;4993965;28;20491;-45
2021/08/24 14:17:31;;;;;;;3.58;1.50;;;;;;;;;;4994282;28;20106;-44
2021/08/24 14:19:58;;;;;;;2.42;1.67;;;;;;;;;;4993716;28;20054;-43
2021/08/24 14:22:26;;;;;;;2.60;1.17;;;;;;;;;;4993828;28;20113;-48
2021/08/24 14:24:52;;;;;;;7.47;1.65;;;;;;;;;;4993914;28;20106;-42
2021/08/24 14:27:18;;;;;;;6.82;2.05;;;;;;;;;;4993492;28;20022;-41
2021/08/24 14:29:45;;;;;;;4.80;1.60;;;;;;;;;;4993776;28;20022;-40
2021/08/24 14:32:34;;;;;;;7.78;1.80;;;;;;;;;;4993272;28;20515;-42
2021/08/24 14:35:00;;;;;;;4.53;1.67;;;;;;;;;;4951408;29;20051;-42
2021/08/24 14:37:29;;;;;;;3.30;1.63;;;;;;;;;;4952476;29;20034;-43
2021/08/24 14:39:55;;;;;;;2.25;1.90;;;;;;;;;;4952497;29;20174;-44
2021/08/24 14:42:34;;;;;;;4.80;3.67;;;;;;;;;;4952639;29;20146;-42
2021/08/24 14:45:01;;;;;;;15.70;9.90;;;;;;;;;;4952548;29;20025;-42
2021/08/24 14:47:33;;;;;;;19.85;16.33;;;;;;;;;;4952181;29;20034;-43
2021/08/24 14:50:00;;;;;;;15.10;10.80;;;;;;;;;;4952391;29;20027;-42
2021/08/24 14:52:34;;;;;;;16.05;12.65;;;;;;;;;;4952141;29;20495;-42
2021/08/24 14:55:26;;;;;;;76.35;60.03;;;;;;;;;;4952399;29;20023;-42
2021/08/24 14:57:57;;;;;;;67.70;54.63;;;;;;;;;;4948487;29;20031;-42